Antwerp, Ohio
Current Conditions -  °F | °C
As of 5:55 PM on Friday 28 Nov 2014 (Local Time) from KGWB Reporting Station
Scattered Clouds Scattered Clouds  
Wind Chill: -5°   Ceiling: Unl
Heat Index: -1°   Visibility: 10mi
Dew Point: -6°   Wind: 7mph
Humidity: 69%   Direction: 130°SE
Pressure: 30.1"   Gusts: NA
Location:  41.18°N, 84.74°W
Report Text: KGWB 282255Z AUTO 13006KT 10SM SCT120 M01/M06 A3010 RMK AO2
Loading
Personal Weather Stations






























Interactive Weather Map New forecast layout! Learn more

10-Day Weather Forecast

Advertisements
Track Severe Weather on mobile